Forrest, Illinois
Current Conditions -  °F | °C
As of 4:55 AM on Sunday 23 Nov 2014 (Local Time) from KPNT Reporting Station
Broken Clouds Broken Clouds  
Wind Chill: 42°   Ceiling: 5500
Heat Index: 47°   Visibility: 10mi
Dew Point: 43°   Wind: 12mph
Humidity: 86%   Direction: 160°SSE
Pressure: 29.76"   Gusts: NA
Location:  40.75°N, 88.41°W
Report Text: KPNT 231055Z AUTO 16010KT 10SM SCT046 BKN055 09/06 A2976 RMK AO2 T00860063
Loading
Personal Weather Stations






























Interactive Weather Map New forecast layout! Learn more

10-Day Weather Forecast

Advertisements
Track Severe Weather on mobile